createdAt,value
2018-02-25T00:00:20.814Z,26.70
2018-02-25T00:02:49.003Z,26.60
2018-02-25T00:05:17.155Z,26.70
2018-02-25T00:07:45.220Z,26.60
2018-02-25T00:10:13.551Z,26.60
2018-02-25T00:12:41.616Z,26.60
2018-02-25T00:15:09.689Z,26.60
2018-02-25T00:17:37.884Z,26.50
2018-02-25T00:20:05.955Z,26.50
2018-02-25T00:22:34.020Z,26.40
2018-02-25T00:25:02.212Z,26.40
2018-02-25T00:27:30.483Z,26.40
2018-02-25T00:29:58.563Z,26.30
2018-02-25T00:32:27.507Z,26.20
2018-02-25T00:34:55.583Z,26.20
2018-02-25T00:37:23.636Z,26.10
2018-02-25T00:39:51.825Z,26.10
2018-02-25T00:42:19.921Z,26.10
2018-02-25T00:44:47.979Z,26.20
2018-02-25T00:47:16.179Z,26.30
2018-02-25T00:49:44.243Z,26.40
2018-02-25T00:52:12.378Z,26.30
2018-02-25T00:54:40.731Z,26.20
2018-02-25T00:57:09.555Z,26.30
2018-02-25T00:59:37.620Z,26.30
2018-02-25T01:02:05.815Z,26.30
2018-02-25T01:04:33.879Z,26.20
2018-02-25T01:07:01.937Z,26.20
2018-02-25T01:09:30.139Z,26.20
2018-02-25T01:11:58.322Z,26.20
2018-02-25T01:14:26.392Z,26.20
2018-02-25T01:16:54.692Z,26.20
2018-02-25T01:19:22.755Z,26.20
2018-02-25T01:21:50.835Z,26.20
2018-02-25T01:24:19.030Z,26.10
2018-02-25T01:26:47.095Z,25.90
2018-02-25T01:29:15.154Z,25.80
2018-02-25T01:31:43.343Z,25.80
2018-02-25T01:34:11.412Z,25.90
2018-02-25T01:36:39.513Z,25.80
2018-02-25T01:39:08.459Z,25.80
2018-02-25T01:41:36.564Z,25.80
2018-02-25T01:44:04.660Z,25.70
2018-02-25T01:46:33.583Z,25.70
2018-02-25T01:49:01.660Z,25.70
2018-02-25T01:51:29.716Z,25.70
2018-02-25T01:53:57.904Z,25.60
2018-02-25T01:56:25.978Z,25.50
2018-02-25T01:58:54.035Z,25.50
2018-02-25T02:01:22.222Z,25.60
2018-02-25T02:03:50.301Z,25.50
2018-02-25T02:06:18.367Z,25.50
2018-02-25T02:08:46.555Z,25.40
2018-02-25T02:11:14.615Z,25.40
2018-02-25T02:13:42.815Z,25.50
2018-02-25T02:16:10.991Z,25.50
2018-02-25T02:18:39.056Z,25.50
2018-02-25T02:21:07.128Z,25.50
2018-02-25T02:23:35.331Z,25.50
2018-02-25T02:26:03.388Z,25.60
2018-02-25T02:28:31.463Z,25.60
2018-02-25T02:30:59.761Z,25.60
2018-02-25T02:33:28.571Z,25.60
2018-02-25T02:35:57.375Z,25.60
2018-02-25T02:38:25.583Z,25.60
2018-02-25T02:40:53.668Z,25.50
2018-02-25T02:43:21.752Z,25.50
2018-02-25T02:45:50.020Z,25.50
2018-02-25T02:48:18.095Z,25.50
2018-02-25T02:50:46.171Z,25.40
2018-02-25T02:53:14.368Z,25.50
2018-02-25T02:55:43.180Z,25.50
2018-02-25T02:58:11.253Z,25.50
2018-02-25T03:00:39.516Z,25.40
2018-02-25T03:03:07.629Z,25.30
2018-02-25T03:05:35.780Z,25.40
2018-02-25T03:08:04.083Z,25.50
2018-02-25T03:10:32.155Z,25.40
2018-02-25T03:13:00.352Z,25.50
2018-02-25T03:15:28.709Z,25.50
2018-02-25T03:17:56.795Z,25.50
2018-02-25T03:20:24.864Z,25.40
2018-02-25T03:22:53.059Z,25.40
2018-02-25T03:25:21.140Z,25.40
2018-02-25T03:27:49.216Z,25.40
2018-02-25T03:30:17.400Z,25.40
2018-02-25T03:32:45.467Z,25.40
2018-02-25T03:35:13.540Z,25.40
2018-02-25T03:37:41.752Z,25.40
2018-02-25T03:40:09.835Z,25.40
2018-02-25T03:42:37.901Z,25.30
2018-02-25T03:45:06.089Z,25.50
2018-02-25T03:47:34.167Z,25.50
2018-02-25T03:50:02.260Z,25.50
2018-02-25T03:52:30.455Z,25.60
2018-02-25T03:54:58.547Z,25.50
2018-02-25T03:57:27.368Z,25.50
2018-02-25T03:59:55.571Z,25.40
2018-02-25T04:02:23.632Z,25.40
2018-02-25T04:04:51.704Z,25.40
2018-02-25T04:07:19.903Z,25.30
2018-02-25T04:09:47.968Z,25.30
2018-02-25T04:12:16.045Z,25.30
2018-02-25T04:14:44.242Z,25.30
2018-02-25T04:17:12.452Z,25.00
2018-02-25T04:19:40.531Z,24.80
2018-02-25T04:22:08.736Z,24.50
2018-02-25T04:24:36.816Z,24.40
2018-02-25T04:27:04.892Z,24.20
2018-02-25T04:29:33.090Z,24.10
2018-02-25T04:32:01.160Z,24.20
2018-02-25T04:34:29.240Z,24.30
2018-02-25T04:36:58.171Z,24.10
2018-02-25T04:39:26.239Z,24.10
2018-02-25T04:41:54.313Z,23.90
2018-02-25T04:44:22.516Z,23.50
2018-02-25T04:46:50.607Z,23.60
2018-02-25T04:49:18.667Z,23.50
2018-02-25T04:51:46.999Z,23.40
2018-02-25T04:54:15.816Z,23.70
2018-02-25T04:56:43.874Z,23.60
2018-02-25T04:59:12.076Z,23.60
2018-02-25T05:01:40.133Z,23.70
2018-02-25T05:04:08.205Z,23.70
2018-02-25T05:06:36.391Z,23.70
2018-02-25T05:09:04.740Z,23.80
2018-02-25T05:11:33.539Z,23.70
2018-02-25T05:14:01.719Z,23.70
2018-02-25T05:16:29.931Z,23.90
2018-02-25T05:18:58.287Z,24.00
2018-02-25T05:21:26.480Z,24.10
2018-02-25T05:23:54.559Z,24.30
2018-02-25T05:26:22.627Z,24.30
2018-02-25T05:28:50.981Z,24.20
2018-02-25T05:31:19.214Z,24.30
2018-02-25T05:33:47.295Z,24.00
2018-02-25T05:36:16.231Z,24.70
2018-02-25T05:38:44.303Z,24.70
2018-02-25T05:41:12.379Z,24.50
2018-02-25T05:43:40.564Z,24.50
2018-02-25T05:46:08.639Z,24.40
2018-02-25T05:48:36.707Z,24.40
2018-02-25T05:51:04.912Z,24.40
2018-02-25T05:53:32.989Z,24.30
2018-02-25T05:56:01.064Z,24.30
2018-02-25T05:58:29.247Z,24.30
2018-02-25T06:00:58.067Z,24.40
2018-02-25T06:03:26.951Z,24.40
2018-02-25T06:05:55.156Z,24.40
2018-02-25T06:08:23.303Z,24.40
2018-02-25T06:10:51.377Z,24.40
2018-02-25T06:13:19.576Z,24.40
2018-02-25T06:15:47.652Z,24.40
2018-02-25T06:18:15.736Z,24.40
2018-02-25T06:20:44.254Z,24.40
2018-02-25T06:23:12.340Z,24.50
2018-02-25T06:25:41.185Z,24.70
2018-02-25T06:28:09.392Z,24.60
2018-02-25T06:30:37.463Z,24.70
2018-02-25T06:33:05.531Z,24.70
2018-02-25T06:35:33.743Z,24.60
2018-02-25T06:38:01.815Z,24.60
2018-02-25T06:40:29.895Z,24.60
2018-02-25T06:42:58.091Z,24.70
2018-02-25T06:45:26.172Z,24.70
2018-02-25T06:47:54.290Z,24.70
2018-02-25T06:50:23.239Z,24.80
2018-02-25T06:52:51.304Z,24.80
2018-02-25T06:55:19.372Z,24.80
2018-02-25T06:57:47.571Z,25.00
2018-02-25T07:00:16.428Z,25.30
2018-02-25T07:02:44.512Z,25.30
2018-02-25T07:05:12.707Z,25.40
2018-02-25T07:07:40.791Z,25.70
2018-02-25T07:10:08.975Z,25.80
2018-02-25T07:12:37.171Z,25.80
2018-02-25T07:15:06.028Z,25.40
2018-02-25T07:17:34.100Z,25.40
2018-02-25T07:20:02.299Z,25.30
2018-02-25T07:22:30.572Z,25.50
2018-02-25T07:24:58.665Z,25.60
2018-02-25T07:27:27.610Z,26.20
2018-02-25T07:29:55.687Z,26.20
2018-02-25T07:32:23.751Z,26.30
2018-02-25T07:34:52.020Z,26.40
2018-02-25T07:37:20.190Z,26.60
2018-02-25T07:39:48.271Z,26.50
2018-02-25T07:42:16.532Z,26.20
2018-02-25T07:44:44.663Z,26.00
2018-02-25T07:47:12.764Z,25.80
2018-02-25T07:49:41.706Z,25.40
2018-02-25T07:52:09.764Z,25.40
2018-02-25T07:54:37.864Z,25.30
2018-02-25T07:57:06.067Z,25.10
2018-02-25T07:59:34.880Z,25.10
2018-02-25T08:02:02.974Z,25.00
2018-02-25T08:04:31.179Z,25.00
2018-02-25T08:06:59.266Z,24.80
2018-02-25T08:09:27.334Z,24.80
2018-02-25T08:11:55.535Z,24.60
2018-02-25T08:14:24.353Z,24.80
2018-02-25T08:16:52.420Z,24.70
2018-02-25T08:19:20.776Z,24.60
2018-02-25T08:21:49.584Z,25.00
2018-02-25T08:24:17.884Z,25.00
2018-02-25T08:26:46.087Z,25.20
2018-02-25T08:29:14.260Z,25.40
2018-02-25T08:31:42.315Z,25.50
2018-02-25T08:34:10.516Z,25.40
2018-02-25T08:36:38.584Z,25.30
2018-02-25T08:39:06.639Z,25.30
2018-02-25T08:41:34.839Z,25.30
2018-02-25T08:44:02.913Z,25.30
2018-02-25T08:46:30.992Z,25.40
2018-02-25T08:48:59.199Z,25.40
2018-02-25T08:51:27.263Z,25.60
2018-02-25T08:53:56.088Z,25.60
2018-02-25T08:56:24.291Z,25.60
2018-02-25T08:58:52.368Z,25.40
2018-02-25T09:01:20.447Z,25.20
2018-02-25T09:03:48.639Z,25.10
2018-02-25T09:06:17.462Z,25.10
2018-02-25T09:08:45.519Z,25.10
2018-02-25T09:11:14.459Z,24.80
2018-02-25T09:13:42.543Z,24.80
2018-02-25T09:16:10.608Z,24.70
2018-02-25T09:18:38.808Z,24.70
2018-02-25T09:21:06.893Z,24.60
2018-02-25T09:23:35.708Z,24.60
2018-02-25T09:26:04.201Z,24.60
2018-02-25T09:28:32.317Z,24.50
2018-02-25T09:31:01.144Z,24.40
2018-02-25T09:33:30.071Z,24.50
2018-02-25T09:35:58.146Z,24.50
2018-02-25T09:38:26.228Z,24.20
2018-02-25T09:40:54.445Z,24.30
2018-02-25T09:43:23.247Z,24.40
2018-02-25T09:45:52.207Z,24.10
2018-02-25T09:48:20.419Z,24.10
2018-02-25T09:50:48.479Z,23.90
2018-02-25T09:53:17.296Z,23.50
2018-02-25T09:55:45.542Z,23.50
2018-02-25T09:58:14.359Z,23.60
2018-02-25T10:00:42.427Z,23.60
2018-02-25T10:03:10.623Z,23.50
2018-02-25T10:05:38.674Z,23.60
2018-02-25T10:08:06.758Z,23.60
2018-02-25T10:10:34.960Z,23.70
2018-02-25T10:13:03.027Z,23.80
2018-02-25T10:15:31.099Z,23.90
2018-02-25T10:17:59.288Z,23.90
2018-02-25T10:20:27.355Z,24.00
2018-02-25T10:22:55.431Z,24.00
2018-02-25T10:25:23.614Z,24.10
2018-02-25T10:27:51.824Z,24.00
2018-02-25T10:30:20.631Z,24.10
2018-02-25T10:32:48.845Z,24.10
2018-02-25T10:35:16.904Z,24.20
2018-02-25T10:37:44.975Z,24.10
2018-02-25T10:40:13.177Z,23.90
2018-02-25T10:42:42.011Z,23.80
2018-02-25T10:45:10.816Z,23.70
2018-02-25T10:47:39.011Z,23.70
2018-02-25T10:50:07.072Z,23.60
2018-02-25T10:52:35.132Z,23.50
2018-02-25T10:55:03.337Z,23.60
2018-02-25T10:57:31.416Z,23.60
2018-02-25T10:59:59.495Z,23.70
2018-02-25T11:02:27.701Z,23.70
2018-02-25T11:04:56.507Z,23.70
2018-02-25T11:07:24.615Z,23.70
2018-02-25T11:09:52.801Z,23.90
2018-02-25T11:12:20.860Z,23.90
2018-02-25T11:14:48.936Z,24.00
2018-02-25T11:17:17.119Z,24.00
2018-02-25T11:19:45.187Z,24.00
2018-02-25T11:22:13.269Z,23.90
2018-02-25T11:24:41.478Z,23.90
2018-02-25T11:27:09.535Z,23.90
2018-02-25T11:29:37.732Z,24.00
2018-02-25T11:32:05.979Z,24.00
2018-02-25T11:34:34.072Z,23.80
2018-02-25T11:37:02.144Z,23.30
2018-02-25T11:39:30.364Z,23.20
2018-02-25T11:41:58.432Z,23.30
2018-02-25T11:44:26.601Z,23.50
2018-02-25T11:46:54.779Z,23.60
2018-02-25T11:49:22.839Z,23.80
2018-02-25T11:51:51.651Z,24.00
2018-02-25T11:54:19.858Z,24.00
2018-02-25T11:56:47.927Z,24.00
2018-02-25T11:59:15.995Z,24.10
2018-02-25T12:01:44.183Z,24.20
2018-02-25T12:04:12.260Z,24.30
2018-02-25T12:06:40.339Z,24.30
2018-02-25T12:09:08.527Z,24.20
2018-02-25T12:11:36.605Z,24.40
2018-02-25T12:14:04.696Z,24.40
2018-02-25T12:16:33.632Z,24.50
2018-02-25T12:19:01.687Z,24.50
2018-02-25T12:21:29.760Z,24.60
2018-02-25T12:23:57.956Z,24.60
2018-02-25T12:26:26.016Z,24.60
2018-02-25T12:28:54.147Z,24.60
2018-02-25T12:31:23.211Z,24.80
2018-02-25T12:33:51.281Z,24.80
2018-02-25T12:36:23.379Z,24.80
2018-02-25T12:38:51.531Z,24.80
2018-02-25T12:41:19.612Z,24.90
2018-02-25T12:43:47.796Z,24.80
2018-02-25T12:46:15.872Z,24.80
2018-02-25T12:48:43.940Z,24.80
2018-02-25T12:51:12.136Z,24.70
2018-02-25T12:53:40.947Z,24.80
2018-02-25T12:56:09.220Z,24.80
2018-02-25T12:58:38.080Z,24.80
2018-02-25T13:01:06.215Z,24.80
2018-02-25T13:03:34.304Z,24.80
2018-02-25T13:06:02.507Z,24.70
2018-02-25T13:08:31.343Z,24.90
2018-02-25T13:10:59.432Z,24.90
2018-02-25T13:13:27.624Z,25.00
2018-02-25T13:15:55.724Z,25.00
2018-02-25T13:18:24.535Z,25.00
2018-02-25T13:20:52.763Z,25.00
2018-02-25T13:23:24.083Z,25.10
2018-02-25T13:25:52.407Z,25.10
2018-02-25T13:28:20.536Z,25.20
2018-02-25T13:30:49.300Z,25.20
2018-02-25T13:33:22.206Z,25.10
2018-02-25T13:35:50.303Z,25.10
2018-02-25T13:38:18.520Z,25.10
2018-02-25T13:40:47.483Z,25.10
2018-02-25T13:43:15.560Z,25.10
2018-02-25T13:45:43.784Z,25.10
2018-02-25T13:48:11.990Z,25.10
2018-02-25T13:50:40.100Z,25.10
2018-02-25T13:53:10.061Z,25.00
2018-02-25T13:55:38.291Z,25.00
2018-02-25T13:58:06.367Z,25.00
2018-02-25T14:00:35.328Z,25.00
2018-02-25T14:03:03.411Z,25.00
2018-02-25T14:05:31.706Z,25.00
2018-02-25T14:07:59.930Z,24.90
2018-02-25T14:10:28.040Z,24.90
2018-02-25T14:12:56.140Z,24.90
2018-02-25T14:15:30.195Z,24.90
2018-02-25T14:17:58.584Z,24.90
2018-02-25T14:20:29.667Z,24.90
2018-02-25T14:22:58.544Z,25.00
2018-02-25T14:25:26.612Z,25.00
2018-02-25T14:27:54.712Z,24.90
2018-02-25T14:30:23.732Z,24.90
2018-02-25T14:32:51.799Z,24.90
2018-02-25T14:35:20.009Z,24.90
2018-02-25T14:37:48.352Z,25.00
2018-02-25T14:40:17.184Z,24.90
2018-02-25T14:42:45.249Z,24.90
2018-02-25T14:45:13.459Z,24.90
2018-02-25T14:47:41.524Z,24.90
2018-02-25T14:50:09.599Z,24.90
2018-02-25T14:52:37.812Z,24.90
2018-02-25T14:55:06.636Z,25.00
2018-02-25T14:57:34.690Z,24.90
2018-02-25T15:00:02.895Z,24.90
2018-02-25T15:02:31.210Z,24.80
2018-02-25T15:05:00.259Z,24.80
2018-02-25T15:07:28.447Z,24.80
2018-02-25T15:09:56.532Z,24.80
2018-02-25T15:12:24.616Z,24.80
2018-02-25T15:14:52.799Z,24.80
2018-02-25T15:17:21.051Z,24.70
2018-02-25T15:19:49.119Z,24.60
2018-02-25T15:22:17.406Z,24.70
2018-02-25T15:24:45.475Z,24.50
2018-02-25T15:27:13.559Z,24.60
2018-02-25T15:29:41.748Z,24.50
2018-02-25T15:32:09.974Z,24.40
2018-02-25T15:34:38.099Z,24.30
2018-02-25T15:37:06.436Z,24.30
2018-02-25T15:39:34.551Z,24.20
2018-02-25T15:42:02.852Z,24.20
2018-02-25T15:44:31.783Z,24.10
2018-02-25T15:46:59.850Z,24.10
2018-02-25T15:49:27.919Z,24.20
2018-02-25T15:51:56.110Z,24.10
2018-02-25T15:54:24.187Z,24.00
2018-02-25T15:56:52.243Z,24.00
2018-02-25T15:59:20.528Z,24.10
2018-02-25T16:01:48.607Z,24.00
2018-02-25T16:04:16.679Z,24.00
2018-02-25T16:06:44.863Z,23.90
2018-02-25T16:09:12.943Z,24.00
2018-02-25T16:11:41.008Z,24.00
2018-02-25T16:14:09.199Z,23.90
2018-02-25T16:16:37.271Z,23.90
2018-02-25T16:19:05.331Z,23.90
2018-02-25T16:21:33.630Z,23.80
2018-02-25T16:24:02.562Z,23.90
2018-02-25T16:26:30.812Z,23.90
2018-02-25T16:28:59.965Z,23.80
2018-02-25T16:31:28.231Z,23.80
2018-02-25T16:33:57.119Z,23.80
2018-02-25T16:36:25.316Z,23.80
2018-02-25T16:38:53.527Z,23.80
2018-02-25T16:41:22.358Z,23.70
2018-02-25T16:43:50.611Z,23.70
